Holyoke Airport


Codes: KHEQ/
Name: Holyoke Airport
City: Holyoke
Country: United States
Elevation: 3730 ft.

Photos at Holyoke Airport


   Photos courtesy of SpottingLog. You can add your own sightings and photos by signing up for a free trial today.



No photos found.

Weather at Holyoke Airport


Time (UTC)DescriptionTempratureWindCloud coverageVisibilityPressureHumidity
23-May-2024 21:00Clear Sky25°C18 mph, SW2%10000m1000hPa35%
24-May-2024 00:00Scattered Clouds21°C29 mph, NW33%10000m999hPa40%
24-May-2024 03:00Overcast Clouds15°C27 mph, NW85%10000m1004hPa31%
24-May-2024 06:00Overcast Clouds13°C27 mph, NW90%10000m1007hPa24%
24-May-2024 09:00Scattered Clouds9°C27 mph, NW33%10000m1008hPa44%
24-May-2024 12:00Few Clouds8°C25 mph, NW16%10000m1010hPa49%
24-May-2024 15:00Clear Sky12°C25 mph, NW0%10000m1011hPa40%
24-May-2024 18:00Clear Sky17°C16 mph, NW0%10000m1010hPa28%
24-May-2024 21:00Clear Sky20°C2 mph, NW1%10000m1008hPa24%
25-May-2024 00:00Clear Sky21°C11 mph, S4%10000m1006hPa23%
25-May-2024 03:00Broken Clouds16°C9 mph, SE72%10000m1008hPa34%
25-May-2024 06:00Broken Clouds14°C16 mph, SE75%10000m1006hPa37%
25-May-2024 09:00Broken Clouds13°C11 mph, S76%10000m1005hPa44%
25-May-2024 12:00Overcast Clouds13°C20 mph, S88%10000m1004hPa49%
25-May-2024 15:00Overcast Clouds17°C25 mph, S100%10000m1001hPa44%
25-May-2024 18:00Overcast Clouds25°C11 mph, SW100%10000m997hPa25%
25-May-2024 21:00Broken Clouds27°C18 mph, SW82%10000m994hPa18%
26-May-2024 00:00Light Rain21°C20 mph, NW84%10000m997hPa42%
26-May-2024 03:00Light Rain15°C18 mph, W87%10000m1000hPa62%
26-May-2024 06:00Overcast Clouds15°C18 mph, W85%10000m1001hPa60%
26-May-2024 09:00Few Clouds15°C25 mph, NW13%10000m1002hPa42%
26-May-2024 12:00Clear Sky13°C18 mph, NW7%10000m1005hPa47%
26-May-2024 15:00Clear Sky18°C18 mph, NW1%10000m1006hPa34%
26-May-2024 18:00Clear Sky23°C20 mph, NW7%10000m1004hPa22%
26-May-2024 21:00Scattered Clouds23°C11 mph, NW35%10000m1003hPa26%
27-May-2024 00:00Broken Clouds22°C13 mph, W67%10000m1004hPa30%
27-May-2024 03:00Broken Clouds13°C16 mph, N54%10000m1013hPa55%
27-May-2024 06:00Scattered Clouds11°C11 mph, NW27%10000m1015hPa45%
27-May-2024 09:00Clear Sky10°C13 mph, NW0%10000m1016hPa55%
27-May-2024 12:00Clear Sky9°C16 mph, NW0%10000m1018hPa61%
27-May-2024 15:00Clear Sky14°C18 mph, NW0%10000m1018hPa55%
27-May-2024 18:00Clear Sky19°C11 mph, N0%10000m1017hPa41%
27-May-2024 21:00Clear Sky22°C9 mph, NW0%10000m1014hPa29%
28-May-2024 00:00Clear Sky22°C4 mph, NE1%10000m1013hPa27%
28-May-2024 03:00Clear Sky18°C7 mph, S5%10000m1015hPa37%
28-May-2024 06:00Clear Sky15°C9 mph, S3%10000m1016hPa44%
28-May-2024 09:00Few Clouds14°C7 mph, S11%10000m1016hPa50%
28-May-2024 12:00Clear Sky12°C7 mph, E6%10000m1018hPa57%
28-May-2024 15:00Clear Sky18°C11 mph, NE1%10000m1017hPa43%
28-May-2024 18:00Clear Sky22°C13 mph, NE0%10000m1016hPa35%